createdAt,value
2018-01-14T00:01:15.564Z,101833.13
2018-01-14T00:03:43.127Z,101830.52
2018-01-14T00:06:10.782Z,101828.72
2018-01-14T00:08:38.312Z,101818.45
2018-01-14T00:11:06.198Z,101823.09
2018-01-14T00:13:33.724Z,101816.25
2018-01-14T00:16:01.281Z,101814.32
2018-01-14T00:18:28.831Z,101820.66
2018-01-14T00:20:56.378Z,101814.22
2018-01-14T00:23:23.993Z,101808.80
2018-01-14T00:25:51.594Z,101807.38
2018-01-14T00:28:19.125Z,101799.13
2018-01-14T00:30:46.659Z,101804.09
2018-01-14T00:33:14.377Z,101805.48
2018-01-14T00:35:41.956Z,101799.14
2018-01-14T00:38:09.504Z,101797.45
2018-01-14T00:40:37.073Z,101801.28
2018-01-14T00:43:04.592Z,101799.75
2018-01-14T00:45:32.521Z,101797.12
2018-01-14T00:48:00.045Z,101792.61
2018-01-14T00:50:27.593Z,101796.23
2018-01-14T00:52:55.205Z,101810.02
2018-01-14T00:55:22.757Z,101798.28
2018-01-14T00:57:50.276Z,101798.77
2018-01-14T01:00:18.186Z,101806.41
2018-01-14T01:02:45.742Z,101806.31
2018-01-14T01:05:13.255Z,101801.09
2018-01-14T01:07:40.800Z,101807.51
2018-01-14T01:10:08.350Z,101808.72
2018-01-14T01:12:35.892Z,101807.53
2018-01-14T01:15:03.441Z,101800.69
2018-01-14T01:19:57.842Z,101795.75
2018-01-14T01:22:25.373Z,101796.36
2018-01-14T01:24:52.961Z,101800.28
2018-01-14T01:27:20.517Z,101793.25
2018-01-14T01:29:48.036Z,101789.22
2018-01-14T01:32:15.576Z,101794.46
2018-01-14T01:34:43.180Z,101796.67
2018-01-14T01:37:10.712Z,101796.97
2018-01-14T01:39:38.228Z,101800.58
2018-01-14T01:42:05.827Z,101801.19
2018-01-14T01:44:33.357Z,101807.52
2018-01-14T01:47:00.895Z,101802.30
2018-01-14T01:49:28.407Z,101804.09
2018-01-14T01:51:56.031Z,101809.85
2018-01-14T01:54:23.557Z,101807.33
2018-01-14T01:56:51.103Z,101814.76
2018-01-14T01:59:18.644Z,101813.56
2018-01-14T02:01:46.221Z,101822.39
2018-01-14T02:04:13.736Z,101816.68
2018-01-14T02:06:41.262Z,101815.16
2018-01-14T02:09:08.833Z,101815.47
2018-01-14T02:11:36.483Z,101814.16
2018-01-14T02:14:04.487Z,101814.45
2018-01-14T02:16:32.034Z,101805.89
2018-01-14T02:18:59.556Z,101802.80
2018-01-14T02:21:27.132Z,101804.30
2018-01-14T02:23:54.648Z,101798.17
2018-01-14T02:26:22.179Z,101797.78
2018-01-14T02:28:49.757Z,101794.94
2018-01-14T02:31:17.396Z,101796.55
2018-01-14T02:33:44.934Z,101788.70
2018-01-14T02:36:12.548Z,101798.67
2018-01-14T02:38:40.149Z,101789.92
2018-01-14T02:41:07.659Z,101792.55
2018-01-14T02:43:35.185Z,101795.25
2018-01-14T02:46:02.762Z,101787.19
2018-01-14T02:48:30.308Z,101788.91
2018-01-14T02:50:57.935Z,101787.00
2018-01-14T02:53:25.493Z,101787.80
2018-01-14T02:55:53.036Z,101789.23
2018-01-14T02:58:20.818Z,101791.62
2018-01-14T03:00:48.361Z,101783.18
2018-01-14T03:03:16.126Z,101780.25
2018-01-14T03:05:43.648Z,101777.56
2018-01-14T03:08:11.198Z,101778.34
2018-01-14T03:10:38.816Z,101774.73
2018-01-14T03:13:06.378Z,101776.45
2018-01-14T03:15:33.931Z,101777.16
2018-01-14T03:18:01.508Z,101783.88
2018-01-14T03:20:29.023Z,101773.92
2018-01-14T03:22:56.636Z,101769.48
2018-01-14T03:25:24.156Z,101763.66
2018-01-14T03:27:51.700Z,101764.88
2018-01-14T03:30:19.269Z,101753.30
2018-01-14T03:32:46.873Z,101753.70
2018-01-14T03:35:14.448Z,101750.88
2018-01-14T03:37:42.136Z,101756.12
2018-01-14T03:40:10.136Z,101758.54
2018-01-14T03:42:37.695Z,101751.59
2018-01-14T03:45:05.266Z,101752.62
2018-01-14T03:47:32.856Z,101766.87
2018-01-14T03:50:00.433Z,101759.44
2018-01-14T03:52:27.957Z,101758.94
2018-01-14T03:54:55.899Z,101759.13
2018-01-14T03:57:23.429Z,101764.35
2018-01-14T03:59:50.972Z,101765.36
2018-01-14T04:02:18.543Z,101759.03
2018-01-14T04:04:46.105Z,101754.32
2018-01-14T04:07:14.025Z,101758.64
2018-01-14T04:09:41.600Z,101757.22
2018-01-14T04:12:09.166Z,101752.30
2018-01-14T04:14:36.740Z,101753.09
2018-01-14T04:17:04.292Z,101757.83
2018-01-14T04:19:31.902Z,101757.94
2018-01-14T04:21:59.524Z,101761.53
2018-01-14T04:24:27.069Z,101755.81
2018-01-14T04:26:54.633Z,101752.09
2018-01-14T04:29:22.581Z,101740.03
2018-01-14T04:31:50.196Z,101741.03
2018-01-14T04:34:17.753Z,101737.09
2018-01-14T04:36:45.314Z,101738.73
2018-01-14T04:39:12.893Z,101740.04
2018-01-14T04:41:40.506Z,101748.27
2018-01-14T04:44:08.439Z,101744.36
2018-01-14T04:46:35.970Z,101748.77
2018-01-14T04:49:03.536Z,101754.40
2018-01-14T04:51:31.109Z,101743.56
2018-01-14T04:53:58.701Z,101752.08
2018-01-14T04:56:26.289Z,101739.31
2018-01-14T04:58:54.031Z,101741.23
2018-01-14T05:01:21.557Z,101739.33
2018-01-14T05:03:49.085Z,101742.73
2018-01-14T05:06:16.831Z,101740.84
2018-01-14T05:08:44.372Z,101734.41
2018-01-14T05:11:11.887Z,101738.31
2018-01-14T05:13:39.485Z,101739.43
2018-01-14T05:16:07.043Z,101738.84
2018-01-14T05:18:34.608Z,101735.30
2018-01-14T05:21:02.379Z,101737.13
2018-01-14T05:23:29.907Z,101733.09
2018-01-14T05:25:57.648Z,101734.31
2018-01-14T05:28:25.186Z,101736.51
2018-01-14T05:30:52.695Z,101739.95
2018-01-14T05:33:20.233Z,101741.44
2018-01-14T05:35:47.825Z,101735.91
2018-01-14T05:38:15.367Z,101743.84
2018-01-14T05:40:43.075Z,101740.34
2018-01-14T05:43:10.627Z,101738.91
2018-01-14T05:45:38.197Z,101742.45
2018-01-14T05:48:05.753Z,101740.44
2018-01-14T05:50:33.315Z,101734.11
2018-01-14T05:53:00.869Z,101734.61
2018-01-14T05:55:28.408Z,101739.43
2018-01-14T05:57:55.945Z,101732.39
2018-01-14T06:00:23.511Z,101737.60
2018-01-14T06:02:51.044Z,101746.66
2018-01-14T06:05:18.928Z,101747.98
2018-01-14T06:07:46.791Z,101745.24
2018-01-14T06:10:14.302Z,101732.57
2018-01-14T06:12:41.855Z,101730.17
2018-01-14T06:15:09.392Z,101732.89
2018-01-14T06:17:36.974Z,101733.48
2018-01-14T06:20:04.606Z,101732.57
2018-01-14T06:22:32.124Z,101732.66
2018-01-14T06:24:59.660Z,101739.13
2018-01-14T06:27:27.208Z,101737.39
2018-01-14T06:29:54.838Z,101743.05
2018-01-14T06:32:22.444Z,101746.47
2018-01-14T06:34:50.031Z,101739.22
2018-01-14T06:37:17.585Z,101741.54
2018-01-14T06:39:45.129Z,101746.04
2018-01-14T06:42:12.668Z,101743.03
2018-01-14T06:44:40.238Z,101735.98
2018-01-14T06:47:07.765Z,101739.84
2018-01-14T06:49:35.333Z,101734.39
2018-01-14T06:52:02.890Z,101732.05
2018-01-14T06:54:30.820Z,101731.09
2018-01-14T06:56:58.455Z,101736.09
2018-01-14T06:59:25.976Z,101740.03
2018-01-14T07:01:53.515Z,101740.40
2018-01-14T07:04:21.086Z,101733.16
2018-01-14T07:06:48.633Z,101738.29
2018-01-14T07:09:16.185Z,101743.85
2018-01-14T07:11:43.697Z,101749.16
2018-01-14T07:14:11.339Z,101756.12
2018-01-14T07:16:38.876Z,101757.08
2018-01-14T07:19:06.445Z,101758.02
2018-01-14T07:21:34.044Z,101752.36
2018-01-14T07:24:01.630Z,101755.16
2018-01-14T07:26:29.142Z,101737.58
2018-01-14T07:28:57.074Z,101731.77
2018-01-14T07:31:24.619Z,101735.39
2018-01-14T07:33:52.135Z,101729.05
2018-01-14T07:36:19.709Z,101737.20
2018-01-14T07:38:47.249Z,101739.11
2018-01-14T07:41:14.787Z,101739.81
2018-01-14T07:43:42.324Z,101729.85
2018-01-14T07:46:09.926Z,101732.06
2018-01-14T07:48:37.453Z,101734.70
2018-01-14T07:51:05.037Z,101734.08
2018-01-14T07:53:32.553Z,101734.09
2018-01-14T07:56:00.120Z,101737.28
2018-01-14T07:58:27.712Z,101741.59
2018-01-14T08:00:55.251Z,101738.59
2018-01-14T08:03:22.779Z,101741.33
2018-01-14T08:05:50.320Z,101744.41
2018-01-14T08:08:17.884Z,101747.61
2018-01-14T08:10:45.394Z,101750.37
2018-01-14T08:13:12.969Z,101740.62
2018-01-14T08:15:40.664Z,101737.80
2018-01-14T08:18:08.258Z,101738.00
2018-01-14T08:20:35.813Z,101734.66
2018-01-14T08:23:03.372Z,101730.64
2018-01-14T08:25:30.935Z,101736.17
2018-01-14T08:27:58.547Z,101732.44
2018-01-14T08:30:26.090Z,101730.97
2018-01-14T08:32:53.641Z,101730.77
2018-01-14T08:35:21.236Z,101733.48
2018-01-14T08:37:49.052Z,101732.65
2018-01-14T08:40:16.572Z,101732.16
2018-01-14T08:42:44.148Z,101734.52
2018-01-14T08:45:11.664Z,101740.33
2018-01-14T08:47:39.487Z,101731.78
2018-01-14T08:50:07.040Z,101738.31
2018-01-14T08:52:34.585Z,101737.52
2018-01-14T08:55:02.242Z,101738.52
2018-01-14T08:57:29.936Z,101736.81
2018-01-14T08:59:57.480Z,101733.70
2018-01-14T09:02:25.099Z,101736.91
2018-01-14T09:04:52.649Z,101739.43
2018-01-14T09:07:20.167Z,101739.04
2018-01-14T09:09:47.776Z,101740.64
2018-01-14T09:12:15.317Z,101732.17
2018-01-14T09:14:42.863Z,101734.67
2018-01-14T09:17:10.822Z,101737.09
2018-01-14T09:19:38.366Z,101729.05
2018-01-14T09:22:05.896Z,101731.58
2018-01-14T09:24:33.480Z,101722.53
2018-01-14T09:27:01.008Z,101719.83
2018-01-14T09:29:28.572Z,101717.82
2018-01-14T09:31:56.146Z,101713.00
2018-01-14T09:34:23.731Z,101711.19
2018-01-14T09:36:51.410Z,101705.75
2018-01-14T09:39:18.981Z,101712.17
2018-01-14T09:41:46.535Z,101710.45
2018-01-14T09:44:14.047Z,101713.78
2018-01-14T09:46:41.587Z,101716.31
2018-01-14T09:49:09.286Z,101715.39
2018-01-14T09:51:37.062Z,101715.48
2018-01-14T09:54:05.562Z,101712.88
2018-01-14T09:56:33.145Z,101709.05
2018-01-14T09:59:00.716Z,101706.66
2018-01-14T10:01:28.293Z,101706.34
2018-01-14T10:03:57.087Z,101706.34
2018-01-14T10:06:24.664Z,101701.71
2018-01-14T10:08:52.232Z,101709.36
2018-01-14T10:11:19.772Z,101709.97
2018-01-14T10:13:47.353Z,101704.63
2018-01-14T10:16:14.882Z,101699.70
2018-01-14T10:18:42.395Z,101703.31
2018-01-14T10:21:09.959Z,101709.95
2018-01-14T10:23:37.509Z,101712.84
2018-01-14T10:26:05.467Z,101707.74
2018-01-14T10:28:32.992Z,101704.39
2018-01-14T10:31:00.572Z,101704.23
2018-01-14T10:33:28.177Z,101692.20
2018-01-14T10:35:55.776Z,101686.45
2018-01-14T10:38:23.292Z,101680.06
2018-01-14T10:40:51.718Z,101680.94
2018-01-14T10:43:19.318Z,101687.25
2018-01-14T10:45:46.843Z,101672.55
2018-01-14T10:48:14.385Z,101678.75
2018-01-14T10:50:41.906Z,101673.83
2018-01-14T10:53:09.464Z,101663.28
2018-01-14T10:55:36.999Z,101672.80
2018-01-14T10:58:04.609Z,101672.56
2018-01-14T11:00:37.732Z,101670.00
2018-01-14T11:03:05.615Z,101669.56
2018-01-14T11:05:33.156Z,101670.70
2018-01-14T11:08:00.704Z,101665.23
2018-01-14T11:10:28.402Z,101657.84
2018-01-14T11:12:55.972Z,101657.78
2018-01-14T11:15:23.506Z,101656.13
2018-01-14T11:17:51.034Z,101659.67
2018-01-14T11:20:18.601Z,101655.78
2018-01-14T11:22:46.154Z,101646.45
2018-01-14T11:25:13.732Z,101650.18
2018-01-14T11:27:41.301Z,101646.05
2018-01-14T11:30:08.987Z,101649.96
2018-01-14T11:32:36.530Z,101655.02
2018-01-14T11:35:04.080Z,101643.13
2018-01-14T11:37:31.657Z,101646.19
2018-01-14T11:39:59.229Z,101633.69
2018-01-14T11:42:26.744Z,101629.55
2018-01-14T11:44:54.296Z,101633.69
2018-01-14T11:47:21.870Z,101629.17
2018-01-14T11:49:49.470Z,101625.05
2018-01-14T11:52:17.007Z,101618.03
2018-01-14T11:54:44.612Z,101621.47
2018-01-14T11:57:12.186Z,101613.37
2018-01-14T11:59:39.872Z,101613.78
2018-01-14T12:02:07.480Z,101609.95
2018-01-14T12:04:35.009Z,101603.19
2018-01-14T12:07:02.796Z,101590.19
2018-01-14T12:09:30.376Z,101587.98
2018-01-14T12:11:58.033Z,101584.19
2018-01-14T12:14:25.580Z,101580.73
2018-01-14T12:16:53.106Z,101580.23
2018-01-14T12:19:20.681Z,101573.02
2018-01-14T12:21:48.336Z,101578.16
2018-01-14T12:24:15.893Z,101576.23
2018-01-14T12:26:43.435Z,101570.62
2018-01-14T12:29:10.979Z,101575.25
2018-01-14T12:31:38.528Z,101569.48
2018-01-14T12:37:17.756Z,101559.63
2018-01-14T12:39:45.376Z,101566.36
2018-01-14T12:42:12.938Z,101566.31
2018-01-14T12:44:40.467Z,101567.29
2018-01-14T12:47:08.067Z,101565.09
2018-01-14T12:49:35.579Z,101564.54
2018-01-14T12:52:03.129Z,101565.70
2018-01-14T12:54:30.696Z,101560.20
2018-01-14T12:56:58.301Z,101564.54
2018-01-14T12:59:25.839Z,101564.70
2018-01-14T13:01:53.594Z,101569.31
2018-01-14T13:04:21.118Z,101557.89
2018-01-14T13:06:48.676Z,101564.58
2018-01-14T13:09:16.195Z,101560.23
2018-01-14T13:11:43.764Z,101560.76
2018-01-14T13:14:11.303Z,101568.73
2018-01-14T13:16:38.922Z,101560.48
2018-01-14T13:19:06.467Z,101555.78
2018-01-14T13:21:33.991Z,101548.91
2018-01-14T13:24:01.566Z,101548.05
2018-01-14T13:26:29.092Z,101544.50
2018-01-14T13:28:56.691Z,101543.42
2018-01-14T13:31:24.232Z,101544.33
2018-01-14T13:33:51.780Z,101540.61
2018-01-14T13:36:19.332Z,101546.32
2018-01-14T13:38:47.027Z,101545.31
2018-01-14T13:41:14.590Z,101550.70
2018-01-14T13:43:42.113Z,101549.27
2018-01-14T13:46:09.687Z,101550.81
2018-01-14T13:48:37.231Z,101543.91
2018-01-14T13:51:04.890Z,101556.13
2018-01-14T13:53:32.462Z,101542.15
2018-01-14T13:55:59.990Z,101539.84
2018-01-14T13:58:27.550Z,101539.09
2018-01-14T14:00:55.106Z,101535.59
2018-01-14T14:03:22.663Z,101529.37
2018-01-14T14:05:50.267Z,101532.39
2018-01-14T14:08:17.827Z,101530.42
2018-01-14T14:10:45.438Z,101530.09
2018-01-14T14:13:13.667Z,101531.65
2018-01-14T14:15:41.339Z,101526.22
2018-01-14T14:18:08.898Z,101536.09
2018-01-14T14:20:36.441Z,101528.19
2018-01-14T14:23:04.006Z,101532.67
2018-01-14T14:25:31.527Z,101523.94
2018-01-14T14:27:59.120Z,101526.10
2018-01-14T14:30:26.778Z,101531.53
2018-01-14T14:32:54.324Z,101536.17
2018-01-14T14:35:21.870Z,101538.05
2018-01-14T14:37:49.612Z,101540.02
2018-01-14T14:40:17.183Z,101536.62
2018-01-14T14:42:44.704Z,101545.13
2018-01-14T14:45:12.450Z,101539.31
2018-01-14T14:47:40.180Z,101549.34
2018-01-14T14:50:07.888Z,101550.28
2018-01-14T14:52:35.536Z,101553.46
2018-01-14T14:55:03.093Z,101554.69
2018-01-14T14:57:30.668Z,101547.81
2018-01-14T14:59:58.236Z,101545.44
2018-01-14T15:02:25.779Z,101551.25
2018-01-14T15:04:53.300Z,101543.62
2018-01-14T15:07:20.884Z,101550.19
2018-01-14T15:09:48.469Z,101543.87
2018-01-14T15:12:16.131Z,101542.32
2018-01-14T15:14:43.830Z,101539.38
2018-01-14T15:17:11.397Z,101538.59
2018-01-14T15:19:39.580Z,101533.29
2018-01-14T15:22:07.135Z,101528.65
2018-01-14T15:24:34.869Z,101528.58
2018-01-14T15:27:02.704Z,101532.28
2018-01-14T15:29:30.219Z,101522.38
2018-01-14T15:31:57.778Z,101522.33
2018-01-14T15:34:25.317Z,101520.02
2018-01-14T15:36:52.963Z,101512.17
2018-01-14T15:39:20.592Z,101515.04
2018-01-14T15:41:48.126Z,101517.47
2018-01-14T15:44:15.642Z,101524.67
2018-01-14T15:46:43.242Z,101519.05
2018-01-14T15:49:11.215Z,101520.44
2018-01-14T15:51:38.858Z,101518.67
2018-01-14T15:54:06.376Z,101517.12
2018-01-14T15:56:33.983Z,101520.77
2018-01-14T15:59:01.664Z,101518.94
2018-01-14T16:01:29.329Z,101510.12
2018-01-14T16:03:56.879Z,101519.88
2018-01-14T16:06:24.416Z,101514.77
2018-01-14T16:08:52.173Z,101517.77
2018-01-14T16:11:19.747Z,101513.75
2018-01-14T16:13:47.293Z,101518.37
2018-01-14T16:16:14.819Z,101519.36
2018-01-14T16:18:42.387Z,101520.39
2018-01-14T16:21:09.933Z,101515.77
2018-01-14T16:23:37.862Z,101517.36
2018-01-14T16:26:05.475Z,101524.19
2018-01-14T16:28:33.016Z,101523.06
2018-01-14T16:31:00.623Z,101522.92
2018-01-14T16:33:28.192Z,101521.14
2018-01-14T16:35:55.862Z,101521.08
2018-01-14T16:38:23.411Z,101523.98
2018-01-14T16:40:51.004Z,101529.42
2018-01-14T16:43:18.553Z,101526.85
2018-01-14T16:45:46.132Z,101516.53
2018-01-14T16:48:13.671Z,101511.04
2018-01-14T16:50:41.514Z,101514.94
2018-01-14T16:53:09.196Z,101516.81
2018-01-14T16:55:36.788Z,101515.95
2018-01-14T16:58:04.353Z,101522.00
2018-01-14T17:00:31.905Z,101520.29
2018-01-14T17:02:59.506Z,101521.62
2018-01-14T17:05:27.108Z,101506.97
2018-01-14T17:07:54.726Z,101504.17
2018-01-14T17:10:22.252Z,101498.97
2018-01-14T17:12:50.060Z,101491.22
2018-01-14T17:15:17.637Z,101486.11
2018-01-14T17:17:45.197Z,101476.49
2018-01-14T17:20:12.763Z,101476.89
2018-01-14T17:22:40.476Z,101474.76
2018-01-14T17:25:08.044Z,101472.16
2018-01-14T17:27:35.625Z,101478.08
2018-01-14T17:30:03.163Z,101476.27
2018-01-14T17:32:30.713Z,101471.42
2018-01-14T17:34:58.267Z,101474.92
2018-01-14T17:37:25.775Z,101469.98
2018-01-14T17:39:53.335Z,101466.25
2018-01-14T17:42:20.855Z,101479.33
2018-01-14T17:44:48.495Z,101476.28
2018-01-14T17:47:16.250Z,101467.72
2018-01-14T17:49:43.827Z,101467.54
2018-01-14T17:52:11.354Z,101465.72
2018-01-14T17:54:39.316Z,101461.81
2018-01-14T17:57:06.888Z,101455.00
2018-01-14T17:59:34.460Z,101449.67
2018-01-14T18:02:02.023Z,101447.28
2018-01-14T18:04:29.579Z,101445.89
2018-01-14T18:06:57.552Z,101440.27
2018-01-14T18:09:25.073Z,101437.45
2018-01-14T18:11:52.616Z,101435.76
2018-01-14T18:14:20.423Z,101432.44
2018-01-14T18:16:59.673Z,101422.20
2018-01-14T18:19:27.191Z,101414.78
2018-01-14T18:21:54.861Z,101410.08
2018-01-14T18:24:22.395Z,101413.98
2018-01-14T18:26:50.022Z,101404.23
2018-01-14T18:29:17.542Z,101412.28
2018-01-14T18:31:45.092Z,101402.03
2018-01-14T18:34:12.712Z,101403.97
2018-01-14T18:36:40.317Z,101405.84
2018-01-14T18:39:07.892Z,101404.95
2018-01-14T18:41:35.442Z,101405.53
2018-01-14T18:44:02.994Z,101399.83
2018-01-14T18:46:30.894Z,101402.73
2018-01-14T18:48:58.526Z,101395.71
2018-01-14T18:51:26.076Z,101402.75
2018-01-14T18:53:53.665Z,101402.35
2018-01-14T18:56:21.182Z,101403.55
2018-01-14T18:58:49.060Z,101409.27
2018-01-14T19:01:16.580Z,101411.66
2018-01-14T19:03:45.079Z,101403.86
2018-01-14T19:06:12.661Z,101403.44
2018-01-14T19:08:40.217Z,101400.66
2018-01-14T19:11:08.131Z,101396.11
2018-01-14T19:13:35.644Z,101393.50
2018-01-14T19:16:03.193Z,101398.43
2018-01-14T19:18:30.780Z,101398.73
2018-01-14T19:20:58.413Z,101400.73
2018-01-14T19:23:25.957Z,101404.53
2018-01-14T19:25:53.640Z,101407.22
2018-01-14T19:28:21.208Z,101406.21
2018-01-14T19:30:48.726Z,101421.08
2018-01-14T19:33:16.274Z,101414.16
2018-01-14T19:35:43.797Z,101412.38
2018-01-14T19:38:11.358Z,101410.16
2018-01-14T19:40:38.904Z,101408.33
2018-01-14T19:43:06.449Z,101411.36
2018-01-14T19:45:34.358Z,101407.43
2018-01-14T19:48:02.094Z,101407.39
2018-01-14T19:50:29.632Z,101407.33
2018-01-14T19:52:57.198Z,101403.59
2018-01-14T19:55:24.925Z,101397.48
2018-01-14T19:57:52.725Z,101399.31
2018-01-14T20:00:20.335Z,101393.98
2018-01-14T20:02:48.419Z,101389.55
2018-01-14T20:05:16.261Z,101395.56
2018-01-14T20:07:44.148Z,101384.23
2018-01-14T20:10:11.819Z,101389.39
2018-01-14T20:12:39.557Z,101384.10
2018-01-14T20:15:07.373Z,101381.98
2018-01-14T20:17:35.067Z,101372.73
2018-01-14T20:20:02.783Z,101363.16
2018-01-14T20:22:30.381Z,101362.61
2018-01-14T20:24:57.948Z,101358.06
2018-01-14T20:27:25.591Z,101355.54
2018-01-14T20:29:53.148Z,101349.01
2018-01-14T20:32:20.790Z,101350.90
2018-01-14T20:34:48.395Z,101343.34
2018-01-14T20:37:15.939Z,101339.89
2018-01-14T20:39:43.808Z,101341.55
2018-01-14T20:42:11.503Z,101344.09
2018-01-14T20:44:44.598Z,101336.47
2018-01-14T20:47:12.181Z,101333.36
2018-01-14T20:49:39.736Z,101329.89
2018-01-14T20:52:07.255Z,101337.06
2018-01-14T20:54:34.853Z,101331.97
2018-01-14T20:57:02.421Z,101331.05
2018-01-14T20:59:29.976Z,101324.30
2018-01-14T21:01:57.514Z,101333.02
2018-01-14T21:04:31.084Z,101324.38
2018-01-14T21:06:58.697Z,101320.98
2018-01-14T21:09:26.258Z,101323.36
2018-01-14T21:11:53.861Z,101314.80
2018-01-14T21:14:21.424Z,101317.09
2018-01-14T21:16:48.944Z,101317.09
2018-01-14T21:19:16.574Z,101312.31
2018-01-14T21:21:44.194Z,101312.31
2018-01-14T21:24:11.774Z,101315.88
2018-01-14T21:26:39.355Z,101313.12
2018-01-14T21:29:06.876Z,101311.25
2018-01-14T21:31:34.462Z,101302.12
2018-01-14T21:34:02.003Z,101303.84
2018-01-14T21:36:29.585Z,101298.25
2018-01-14T21:38:57.137Z,101302.23
2018-01-14T21:41:24.723Z,101303.34
2018-01-14T21:43:52.268Z,101303.15
2018-01-14T21:46:19.844Z,101303.42
2018-01-14T21:48:47.397Z,101302.63
2018-01-14T21:51:14.923Z,101297.96
2018-01-14T21:53:42.543Z,101297.46
2018-01-14T21:56:10.110Z,101305.27
2018-01-14T21:58:37.668Z,101292.13
2018-01-14T22:01:05.244Z,101289.02
2018-01-14T22:03:32.762Z,101285.84
2018-01-14T22:06:00.299Z,101284.86
2018-01-14T22:08:27.842Z,101279.05
2018-01-14T22:10:55.392Z,101274.78
2018-01-14T22:13:22.944Z,101271.23
2018-01-14T22:15:50.860Z,101276.12
2018-01-14T22:18:18.424Z,101272.50
2018-01-14T22:20:45.950Z,101268.73
2018-01-14T22:23:13.483Z,101269.61
2018-01-14T22:25:41.027Z,101272.22
2018-01-14T22:28:08.834Z,101257.47
2018-01-14T22:30:36.556Z,101255.89
2018-01-14T22:33:04.266Z,101253.56
2018-01-14T22:35:31.797Z,101242.77
2018-01-14T22:37:59.372Z,101245.28
2018-01-14T22:40:26.955Z,101244.06
2018-01-14T22:42:54.553Z,101246.17
2018-01-14T22:45:22.105Z,101243.28
2018-01-14T22:47:49.685Z,101236.47
2018-01-14T22:50:17.217Z,101234.24
2018-01-14T22:52:44.788Z,101220.52
2018-01-14T22:55:12.328Z,101216.91
2018-01-14T22:57:40.106Z,101216.00
2018-01-14T23:00:07.724Z,101217.58
2018-01-14T23:02:35.294Z,101213.75
2018-01-14T23:05:02.835Z,101213.86
2018-01-14T23:07:30.440Z,101210.51
2018-01-14T23:09:57.998Z,101208.11
2018-01-14T23:12:25.570Z,101211.27
2018-01-14T23:14:58.903Z,101198.84
2018-01-14T23:17:26.515Z,101200.33
2018-01-14T23:19:54.061Z,101199.91
2018-01-14T23:22:21.648Z,101203.45
2018-01-14T23:24:49.276Z,101201.76
2018-01-14T23:27:16.823Z,101197.33
2018-01-14T23:29:44.495Z,101193.16
2018-01-14T23:32:12.068Z,101186.13
2018-01-14T23:34:39.620Z,101185.67
2018-01-14T23:37:07.187Z,101177.14
2018-01-14T23:39:34.739Z,101171.24
2018-01-14T23:42:02.282Z,101160.48
2018-01-14T23:44:29.865Z,101157.80
2018-01-14T23:46:57.445Z,101149.51
2018-01-14T23:49:25.080Z,101140.71
2018-01-14T23:51:52.669Z,101138.42
2018-01-14T23:54:20.268Z,101132.82
2018-01-14T23:56:47.797Z,101131.52
2018-01-14T23:59:15.346Z,101128.30
